createdAt,value
2023-01-13T00:00:31.901Z,3.78
2023-01-13T00:03:04.399Z,3.76
2023-01-13T00:05:36.598Z,3.76
2023-01-13T00:08:11.111Z,3.75
2023-01-13T00:10:43.070Z,3.75
2023-01-13T00:13:16.026Z,3.74
2023-01-13T00:15:56.971Z,3.74
2023-01-13T00:18:29.987Z,3.78
2023-01-13T00:21:01.773Z,3.78
2023-01-13T00:23:35.918Z,3.76
2023-01-13T00:26:11.777Z,3.80
2023-01-13T00:28:43.747Z,3.80
2023-01-13T00:31:17.390Z,3.82
2023-01-13T00:33:51.405Z,3.85
2023-01-13T00:36:24.173Z,3.87
2023-01-13T00:38:56.358Z,3.89
2023-01-13T00:41:49.458Z,3.88
2023-01-13T00:44:21.673Z,3.89
2023-01-13T00:46:53.584Z,3.88
2023-01-13T00:49:25.847Z,3.88
2023-01-13T00:51:58.008Z,3.87
2023-01-13T00:54:30.557Z,3.82
2023-01-13T00:57:02.667Z,3.82
2023-01-13T00:59:35.948Z,3.82
2023-01-13T01:02:08.033Z,3.83
2023-01-13T01:04:41.689Z,3.83
2023-01-13T01:07:13.989Z,3.82
2023-01-13T01:09:46.625Z,3.87
2023-01-13T01:12:18.873Z,3.89
2023-01-13T01:14:51.164Z,3.90
2023-01-13T01:17:23.421Z,3.89
2023-01-13T01:19:55.831Z,3.89
2023-01-13T01:22:28.112Z,3.90
2023-01-13T01:25:00.914Z,3.90
2023-01-13T01:27:33.437Z,3.90
2023-01-13T01:30:05.916Z,3.88
2023-01-13T01:32:38.959Z,3.88
2023-01-13T01:35:13.660Z,3.86
2023-01-13T01:37:46.165Z,3.82
2023-01-13T01:40:18.726Z,3.82
2023-01-13T01:43:07.851Z,3.82
2023-01-13T01:45:40.946Z,3.77
2023-01-13T01:48:15.507Z,3.73
2023-01-13T01:50:49.460Z,3.76
2023-01-13T01:53:30.654Z,3.78
2023-01-13T01:56:04.666Z,3.80
2023-01-13T01:58:45.861Z,3.81
2023-01-13T02:01:19.354Z,3.81
2023-01-13T02:03:59.878Z,3.83
2023-01-13T02:06:33.452Z,3.79
2023-01-13T02:09:06.239Z,3.84
2023-01-13T02:11:57.011Z,3.84
2023-01-13T02:14:31.418Z,3.82
2023-01-13T02:17:28.291Z,3.85
2023-01-13T02:20:37.851Z,3.85
2023-01-13T02:24:13.830Z,3.86
2023-01-13T02:27:26.336Z,3.84
2023-01-13T02:30:26.355Z,3.81
2023-01-13T02:33:10.651Z,3.86
2023-01-13T02:35:51.371Z,3.83
2023-01-13T02:38:40.021Z,3.84
2023-01-13T02:41:35.186Z,3.87
2023-01-13T02:44:08.388Z,3.86
2023-01-13T02:46:47.362Z,3.85
2023-01-13T02:49:26.775Z,3.87
2023-01-13T02:52:06.805Z,3.86
2023-01-13T02:54:43.752Z,3.89
2023-01-13T02:57:19.148Z,3.90
2023-01-13T02:59:52.189Z,3.92
2023-01-13T03:02:27.044Z,3.95
2023-01-13T03:05:00.664Z,3.98
2023-01-13T03:07:58.427Z,4.00
2023-01-13T03:10:52.268Z,3.98
2023-01-13T03:13:39.510Z,4.04
2023-01-13T03:16:24.843Z,4.03
2023-01-13T03:19:09.682Z,4.08
2023-01-13T03:21:48.928Z,4.12
2023-01-13T03:24:27.745Z,4.10
2023-01-13T03:27:06.045Z,4.10
2023-01-13T03:29:42.805Z,4.13
2023-01-13T03:32:19.932Z,4.14
2023-01-13T03:34:56.016Z,4.15
2023-01-13T03:37:33.009Z,4.08
2023-01-13T03:40:10.319Z,4.15
2023-01-13T03:43:06.617Z,4.17
2023-01-13T03:45:41.587Z,4.19
2023-01-13T03:48:18.094Z,4.16
2023-01-13T03:50:55.113Z,4.17
2023-01-13T03:53:30.424Z,4.20
2023-01-13T03:56:09.166Z,4.20
2023-01-13T03:58:44.636Z,4.25
2023-01-13T04:01:21.636Z,4.26
2023-01-13T04:03:59.013Z,4.32
2023-01-13T04:06:38.466Z,4.29
2023-01-13T04:09:19.665Z,4.31
2023-01-13T04:11:56.795Z,4.32
2023-01-13T04:14:30.875Z,4.27
2023-01-13T04:17:03.292Z,4.28
2023-01-13T04:19:36.102Z,4.27
2023-01-13T04:22:08.468Z,4.28
2023-01-13T04:24:41.276Z,4.34
2023-01-13T04:27:13.503Z,4.36
2023-01-13T04:29:45.489Z,4.39
2023-01-13T04:32:19.066Z,4.42
2023-01-13T04:34:51.326Z,4.41
2023-01-13T04:37:23.299Z,4.49
2023-01-13T04:39:55.499Z,4.50
2023-01-13T04:42:28.085Z,4.51
2023-01-13T04:45:00.091Z,4.57
2023-01-13T04:47:32.648Z,4.61
2023-01-13T04:50:04.860Z,4.62
2023-01-13T04:52:38.025Z,4.67
2023-01-13T04:55:11.987Z,4.69
2023-01-13T04:57:44.486Z,4.68
2023-01-13T05:00:19.508Z,4.70
2023-01-13T05:02:52.902Z,4.70
2023-01-13T05:05:25.812Z,4.74
2023-01-13T05:07:59.392Z,4.75
2023-01-13T05:10:32.028Z,4.75
2023-01-13T05:13:22.121Z,4.78
2023-01-13T05:16:18.306Z,4.76
2023-01-13T05:18:52.255Z,4.76
2023-01-13T05:21:42.390Z,4.78
2023-01-13T05:24:44.776Z,4.86
2023-01-13T05:27:20.076Z,4.85
2023-01-13T05:29:53.057Z,4.88
2023-01-13T05:32:28.174Z,4.90
2023-01-13T05:35:01.963Z,4.89
2023-01-13T05:37:32.077Z,4.92
2023-01-13T05:40:21.925Z,4.93
2023-01-13T05:43:22.046Z,4.99
2023-01-13T05:45:58.261Z,5.03
2023-01-13T05:48:33.896Z,5.06
2023-01-13T05:51:07.920Z,5.10
2023-01-13T05:53:41.058Z,5.15
2023-01-13T05:56:14.168Z,5.17
2023-01-13T05:58:46.430Z,5.24
2023-01-13T06:01:18.793Z,5.26
2023-01-13T06:03:51.127Z,5.31
2023-01-13T06:06:23.414Z,5.32
2023-01-13T06:08:55.486Z,5.32
2023-01-13T06:11:29.184Z,5.35
2023-01-13T06:14:04.615Z,5.36
2023-01-13T06:16:36.880Z,5.38
2023-01-13T06:19:14.608Z,5.40
2023-01-13T06:21:46.943Z,5.42
2023-01-13T06:24:19.139Z,5.47
2023-01-13T06:26:52.058Z,5.46
2023-01-13T06:29:24.054Z,5.46
2023-01-13T06:31:57.747Z,5.47
2023-01-13T06:34:28.450Z,5.45
2023-01-13T06:37:00.798Z,5.42
2023-01-13T06:39:33.927Z,5.44
2023-01-13T06:42:23.929Z,5.41
2023-01-13T06:44:56.021Z,5.40
2023-01-13T06:47:28.340Z,5.37
2023-01-13T06:50:00.731Z,5.37
2023-01-13T06:52:33.967Z,5.43
2023-01-13T06:55:07.048Z,5.45
2023-01-13T06:57:51.528Z,5.46
2023-01-13T07:00:26.729Z,5.45
2023-01-13T07:03:08.938Z,5.49
2023-01-13T07:05:41.927Z,5.52
2023-01-13T07:08:14.087Z,5.56
2023-01-13T07:10:46.322Z,5.56
2023-01-13T07:13:39.161Z,5.58
2023-01-13T07:16:12.146Z,5.57
2023-01-13T07:18:44.468Z,5.53
2023-01-13T07:21:19.510Z,5.55
2023-01-13T07:23:52.094Z,5.60
2023-01-13T07:26:24.280Z,5.59
2023-01-13T07:28:56.707Z,5.57
2023-01-13T07:31:28.898Z,5.63
2023-01-13T07:34:01.369Z,5.62
2023-01-13T07:36:33.628Z,5.65
2023-01-13T07:39:08.057Z,5.66
2023-01-13T07:41:57.603Z,5.72
2023-01-13T07:44:29.608Z,5.74
2023-01-13T07:47:01.690Z,5.81
2023-01-13T07:49:33.764Z,5.85
2023-01-13T07:52:06.146Z,5.91
2023-01-13T07:54:40.873Z,5.92
2023-01-13T07:57:13.654Z,5.94
2023-01-13T07:59:45.809Z,6.02
2023-01-13T08:02:18.210Z,6.02
2023-01-13T08:04:50.551Z,6.03
2023-01-13T08:07:24.861Z,6.07
2023-01-13T08:10:01.101Z,6.09
2023-01-13T08:12:57.038Z,6.13
2023-01-13T08:15:30.385Z,6.20
2023-01-13T08:18:02.546Z,6.26
2023-01-13T08:20:35.005Z,6.28
2023-01-13T08:23:07.568Z,6.30
2023-01-13T08:25:39.975Z,6.29
2023-01-13T08:28:12.571Z,6.36
2023-01-13T08:30:44.913Z,6.41
2023-01-13T08:33:17.943Z,6.42
2023-01-13T08:35:53.125Z,6.45
2023-01-13T08:38:28.520Z,6.49
2023-01-13T08:41:00.759Z,6.46
2023-01-13T08:43:33.279Z,6.52
2023-01-13T08:46:06.697Z,6.56
2023-01-13T08:48:39.285Z,6.58
2023-01-13T08:51:12.639Z,6.60
2023-01-13T08:53:44.774Z,6.62
2023-01-13T08:56:17.279Z,6.68
2023-01-13T08:58:49.777Z,6.73
2023-01-13T09:01:24.872Z,6.85
2023-01-13T09:03:57.690Z,6.92
2023-01-13T09:06:29.767Z,6.97
2023-01-13T09:09:02.865Z,7.01
2023-01-13T09:11:57.075Z,7.08
2023-01-13T09:14:28.801Z,7.15
2023-01-13T09:17:01.218Z,7.22
2023-01-13T09:19:33.576Z,7.35
2023-01-13T09:22:05.943Z,7.40
2023-01-13T09:24:37.955Z,7.49
2023-01-13T09:27:10.393Z,7.52
2023-01-13T09:29:42.772Z,7.55
2023-01-13T09:32:17.074Z,7.63
2023-01-13T09:35:02.056Z,7.66
2023-01-13T09:37:35.694Z,7.66
2023-01-13T09:40:11.398Z,7.73
2023-01-13T09:43:06.121Z,7.78
2023-01-13T09:45:45.789Z,7.76
2023-01-13T09:48:22.478Z,7.76
2023-01-13T09:51:04.639Z,7.80
2023-01-13T09:53:39.889Z,7.87
2023-01-13T09:56:13.563Z,7.85
2023-01-13T09:58:46.594Z,7.88
2023-01-13T10:01:28.272Z,7.88
2023-01-13T10:04:04.170Z,7.93
2023-01-13T10:06:40.408Z,7.90
2023-01-13T10:09:20.211Z,7.93
2023-01-13T10:12:13.848Z,7.97
2023-01-13T10:14:53.498Z,7.96
2023-01-13T10:17:31.962Z,7.98
2023-01-13T10:20:18.459Z,8.04
2023-01-13T10:23:02.217Z,8.06
2023-01-13T10:25:55.013Z,8.04
2023-01-13T10:28:27.889Z,8.04
2023-01-13T10:31:00.148Z,8.08
2023-01-13T10:33:32.755Z,8.03
2023-01-13T10:36:14.356Z,8.09
2023-01-13T10:38:48.374Z,8.17
2023-01-13T10:41:29.257Z,8.25
2023-01-13T10:44:08.424Z,8.33
2023-01-13T10:46:55.411Z,8.34
2023-01-13T10:49:34.325Z,8.40
2023-01-13T10:52:29.074Z,8.46
2023-01-13T10:55:01.517Z,8.49
2023-01-13T10:57:39.732Z,8.58
2023-01-13T11:00:29.923Z,8.69
2023-01-13T11:03:18.616Z,8.72
2023-01-13T11:05:55.682Z,8.80
2023-01-13T11:08:30.252Z,8.84
2023-01-13T11:11:02.981Z,8.87
2023-01-13T11:13:59.370Z,8.87
2023-01-13T11:16:31.780Z,8.90
2023-01-13T11:19:13.687Z,8.94
2023-01-13T11:21:54.823Z,8.98
2023-01-13T11:24:37.346Z,9.01
2023-01-13T11:27:17.876Z,9.02
2023-01-13T11:30:10.312Z,9.09
2023-01-13T11:32:55.387Z,9.12
2023-01-13T11:35:28.740Z,9.18
2023-01-13T11:38:06.159Z,9.26
2023-01-13T11:40:43.127Z,9.34
2023-01-13T11:43:25.131Z,9.36
2023-01-13T11:46:00.724Z,9.42
2023-01-13T11:48:37.728Z,9.47
2023-01-13T11:51:24.580Z,9.52
2023-01-13T11:54:11.271Z,9.57
2023-01-13T11:57:05.504Z,9.54
2023-01-13T11:59:56.610Z,9.58
2023-01-13T12:02:46.844Z,9.60
2023-01-13T12:05:26.844Z,9.63
2023-01-13T12:08:12.819Z,9.69
2023-01-13T12:10:56.847Z,9.69
2023-01-13T12:13:42.128Z,9.75
2023-01-13T12:16:27.393Z,9.72
2023-01-13T12:19:20.331Z,9.71
2023-01-13T12:22:05.043Z,9.70
2023-01-13T12:24:44.566Z,9.75
2023-01-13T12:27:24.357Z,9.78
2023-01-13T12:30:00.269Z,9.76
2023-01-13T12:32:36.235Z,9.77
2023-01-13T12:35:25.978Z,9.75
2023-01-13T12:38:05.461Z,9.75
2023-01-13T12:40:49.275Z,9.73
2023-01-13T12:43:40.839Z,9.76
2023-01-13T12:46:53.388Z,9.77
2023-01-13T12:49:28.107Z,9.75
2023-01-13T12:52:18.830Z,9.79
2023-01-13T12:55:24.000Z,9.82
2023-01-13T12:58:27.667Z,9.81
2023-01-13T13:01:15.876Z,9.79
2023-01-13T13:04:12.586Z,9.82
2023-01-13T13:06:47.800Z,9.79
2023-01-13T13:09:28.130Z,9.80
2023-01-13T13:12:17.790Z,9.86
2023-01-13T13:15:07.941Z,9.75
2023-01-13T13:18:04.767Z,9.76
2023-01-13T13:21:04.228Z,9.80
2023-01-13T13:24:03.305Z,9.82
2023-01-13T13:26:47.134Z,9.81
2023-01-13T13:29:52.684Z,9.83
2023-01-13T13:32:56.217Z,9.82
2023-01-13T13:35:41.959Z,9.80
2023-01-13T13:38:48.829Z,9.67
2023-01-13T13:41:52.673Z,9.58
2023-01-13T13:44:47.333Z,9.52
2023-01-13T13:47:22.116Z,9.49
2023-01-13T13:49:56.575Z,9.43
2023-01-13T13:52:38.090Z,9.43
2023-01-13T13:55:17.800Z,9.41
2023-01-13T13:57:51.914Z,9.37
2023-01-13T14:00:28.333Z,9.35
2023-01-13T14:03:03.558Z,9.33
2023-01-13T14:05:37.053Z,9.29
2023-01-13T14:08:17.093Z,9.30
2023-01-13T14:10:49.987Z,9.30
2023-01-13T14:13:26.515Z,9.30
2023-01-13T14:16:01.687Z,9.30
2023-01-13T14:18:45.694Z,9.29
2023-01-13T14:21:26.025Z,9.24
2023-01-13T14:24:02.066Z,9.23
2023-01-13T14:26:38.205Z,9.18
2023-01-13T14:29:15.932Z,9.19
2023-01-13T14:31:50.137Z,9.23
2023-01-13T14:34:32.114Z,9.26
2023-01-13T14:37:23.070Z,9.25
2023-01-13T14:39:56.805Z,9.25
2023-01-13T14:42:31.959Z,9.24
2023-01-13T14:45:04.648Z,9.26
2023-01-13T14:47:37.176Z,9.21
2023-01-13T14:50:26.168Z,9.18
2023-01-13T14:53:00.995Z,9.22
2023-01-13T14:55:34.684Z,9.19
2023-01-13T14:58:24.750Z,9.20
2023-01-13T15:01:30.131Z,9.12
2023-01-13T15:04:20.649Z,9.06
2023-01-13T15:06:58.200Z,9.05
2023-01-13T15:09:46.810Z,9.08
2023-01-13T15:12:31.043Z,9.04
2023-01-13T15:15:04.413Z,9.02
2023-01-13T15:17:37.371Z,8.96
2023-01-13T15:20:16.447Z,8.95
2023-01-13T15:22:48.589Z,8.94
2023-01-13T15:25:21.032Z,8.90
2023-01-13T15:27:54.581Z,8.85
2023-01-13T15:30:26.489Z,8.85
2023-01-13T15:33:00.791Z,8.81
2023-01-13T15:35:33.033Z,8.80
2023-01-13T15:38:10.981Z,8.77
2023-01-13T15:40:46.207Z,8.78
2023-01-13T15:43:38.304Z,8.80
2023-01-13T15:46:41.026Z,8.78
2023-01-13T15:49:21.585Z,8.70
2023-01-13T15:51:57.434Z,8.70
2023-01-13T15:54:30.169Z,8.70
2023-01-13T15:57:02.447Z,8.74
2023-01-13T15:59:34.476Z,8.72
2023-01-13T16:02:11.241Z,8.71
2023-01-13T16:04:43.372Z,8.75
2023-01-13T16:07:19.181Z,8.71
2023-01-13T16:09:51.500Z,8.73
2023-01-13T16:12:23.681Z,8.72
2023-01-13T16:14:55.703Z,8.74
2023-01-13T16:17:30.379Z,8.72
2023-01-13T16:20:02.599Z,8.69
2023-01-13T16:22:34.770Z,8.63
2023-01-13T16:25:07.468Z,8.65
2023-01-13T16:27:39.735Z,8.63
2023-01-13T16:30:25.108Z,8.60
2023-01-13T16:32:58.473Z,8.62
2023-01-13T16:35:32.355Z,8.62
2023-01-13T16:38:05.028Z,8.60
2023-01-13T16:40:38.303Z,8.57
2023-01-13T16:43:13.357Z,8.56
2023-01-13T16:45:46.046Z,8.55
2023-01-13T16:48:22.933Z,8.59
2023-01-13T16:50:56.046Z,8.56
2023-01-13T16:53:28.211Z,8.58
2023-01-13T16:56:00.969Z,8.58
2023-01-13T16:58:33.729Z,8.57
2023-01-13T17:01:15.738Z,8.61
2023-01-13T17:03:51.904Z,8.54
2023-01-13T17:06:28.815Z,8.57
2023-01-13T17:09:08.588Z,8.56
2023-01-13T17:11:41.031Z,8.51
2023-01-13T17:14:18.498Z,8.51
2023-01-13T17:16:52.195Z,8.54
2023-01-13T17:19:26.001Z,8.48
2023-01-13T17:21:58.293Z,8.42
2023-01-13T17:24:33.249Z,8.37
2023-01-13T17:27:08.070Z,8.39
2023-01-13T17:29:42.351Z,8.37
2023-01-13T17:32:20.714Z,8.37
2023-01-13T17:34:54.991Z,8.34
2023-01-13T17:37:30.434Z,8.35
2023-01-13T17:40:03.179Z,8.29
2023-01-13T17:42:35.308Z,8.32
2023-01-13T17:45:11.560Z,8.31
2023-01-13T17:50:31.321Z,8.32
2023-01-13T17:53:06.208Z,8.29
2023-01-13T17:55:39.225Z,8.29
2023-01-13T17:58:11.377Z,8.32
2023-01-13T18:00:46.377Z,8.32
2023-01-13T18:03:21.963Z,8.32
2023-01-13T18:05:55.250Z,8.31
2023-01-13T18:08:29.998Z,8.33
2023-01-13T18:11:03.141Z,8.28
2023-01-13T18:13:36.711Z,8.29
2023-01-13T18:16:11.535Z,8.31
2023-01-13T18:18:45.822Z,8.35
2023-01-13T18:21:40.588Z,8.31
2023-01-13T18:24:34.076Z,8.22
2023-01-13T18:27:23.717Z,8.23
2023-01-13T18:29:58.689Z,8.19
2023-01-13T18:32:33.770Z,8.18
2023-01-13T18:35:10.702Z,8.15
2023-01-13T18:37:46.503Z,8.16
2023-01-13T18:40:25.619Z,8.17
2023-01-13T18:42:59.833Z,8.18
2023-01-13T18:45:33.783Z,8.15
2023-01-13T18:48:08.813Z,8.12
2023-01-13T18:50:42.242Z,8.12
2023-01-13T18:53:19.160Z,8.11
2023-01-13T18:55:56.950Z,8.10
2023-01-13T18:58:35.949Z,8.06
2023-01-13T19:01:11.677Z,8.05
2023-01-13T19:03:46.404Z,8.03
2023-01-13T19:06:22.958Z,8.03
2023-01-13T19:08:58.981Z,7.99
2023-01-13T19:11:32.711Z,8.01
2023-01-13T19:14:04.193Z,8.01
2023-01-13T19:16:37.287Z,7.94
2023-01-13T19:19:22.523Z,7.95
2023-01-13T19:21:58.079Z,7.95
2023-01-13T19:24:31.760Z,7.96
2023-01-13T19:27:07.291Z,7.98
2023-01-13T19:29:50.168Z,7.97
2023-01-13T19:32:28.086Z,7.96
2023-01-13T19:35:01.482Z,7.98
2023-01-13T19:37:34.806Z,7.96
2023-01-13T19:40:09.633Z,8.01
2023-01-13T19:43:03.280Z,7.99
2023-01-13T19:45:36.766Z,7.98
2023-01-13T19:48:09.602Z,7.95
2023-01-13T19:50:42.496Z,7.94
2023-01-13T19:53:22.295Z,7.89
2023-01-13T19:56:04.857Z,7.84
2023-01-13T19:58:37.765Z,7.79
2023-01-13T20:01:12.669Z,7.77
2023-01-13T20:03:46.922Z,7.73
2023-01-13T20:06:20.513Z,7.69
2023-01-13T20:08:55.575Z,7.63
2023-01-13T20:11:33.472Z,7.54
2023-01-13T20:14:06.228Z,7.50
2023-01-13T20:16:39.087Z,7.48
2023-01-13T20:19:14.362Z,7.45
2023-01-13T20:21:48.663Z,7.41
2023-01-13T20:24:21.819Z,7.35
2023-01-13T20:26:59.774Z,7.31
2023-01-13T20:29:32.215Z,7.25
2023-01-13T20:32:04.932Z,7.17
2023-01-13T20:34:39.265Z,7.16
2023-01-13T20:37:14.546Z,7.13
2023-01-13T20:39:47.442Z,7.07
2023-01-13T20:42:32.301Z,7.06
2023-01-13T20:45:04.425Z,7.03
2023-01-13T20:47:36.767Z,7.02
2023-01-13T20:50:13.724Z,7.03
2023-01-13T20:52:47.942Z,6.99
2023-01-13T20:55:20.154Z,6.94
2023-01-13T20:57:54.037Z,6.91
2023-01-13T21:00:28.802Z,6.91
2023-01-13T21:03:01.080Z,6.88
2023-01-13T21:05:34.346Z,6.87
2023-01-13T21:08:06.840Z,6.86
2023-01-13T21:10:41.712Z,6.84
2023-01-13T21:13:33.016Z,6.86
2023-01-13T21:16:06.079Z,6.81
2023-01-13T21:18:57.427Z,6.78
2023-01-13T21:21:30.244Z,6.75
2023-01-13T21:24:02.259Z,6.77
2023-01-13T21:26:34.882Z,6.75
2023-01-13T21:29:07.618Z,6.75
2023-01-13T21:31:41.033Z,6.73
2023-01-13T21:34:13.908Z,6.76
2023-01-13T21:36:46.256Z,6.77
2023-01-13T21:39:18.566Z,6.72
2023-01-13T21:42:08.785Z,6.71
2023-01-13T21:44:58.257Z,6.72
2023-01-13T21:47:48.041Z,6.66
2023-01-13T21:50:21.930Z,6.69
2023-01-13T21:52:54.795Z,6.68
2023-01-13T21:55:29.729Z,6.63
2023-01-13T21:58:09.427Z,6.64
2023-01-13T22:00:42.799Z,6.64
2023-01-13T22:03:19.608Z,6.65
2023-01-13T22:05:58.139Z,6.62
2023-01-13T22:08:36.466Z,6.64
2023-01-13T22:11:13.355Z,6.62
2023-01-13T22:14:02.629Z,6.61
2023-01-13T22:16:36.900Z,6.61
2023-01-13T22:19:09.874Z,6.60
2023-01-13T22:21:42.542Z,6.59
2023-01-13T22:24:15.172Z,6.57
2023-01-13T22:26:47.488Z,6.55
2023-01-13T22:29:22.686Z,6.54
2023-01-13T22:31:54.983Z,6.54
2023-01-13T22:34:27.557Z,6.52
2023-01-13T22:37:00.105Z,6.55
2023-01-13T22:39:32.428Z,6.55
2023-01-13T22:42:05.335Z,6.55
2023-01-13T22:44:39.900Z,6.53
2023-01-13T22:47:11.987Z,6.52
2023-01-13T22:49:47.938Z,6.45
2023-01-13T22:52:20.837Z,6.44
2023-01-13T22:54:52.816Z,6.45
2023-01-13T22:57:24.908Z,6.46
2023-01-13T22:59:57.627Z,6.44
2023-01-13T23:02:34.523Z,6.42
2023-01-13T23:05:07.476Z,6.39
2023-01-13T23:07:40.833Z,6.39
2023-01-13T23:10:14.411Z,6.35
2023-01-13T23:12:44.807Z,6.38
2023-01-13T23:15:18.135Z,6.36
2023-01-13T23:17:51.809Z,6.39
2023-01-13T23:20:22.068Z,6.34
2023-01-13T23:22:54.719Z,6.29
2023-01-13T23:25:27.593Z,6.30
2023-01-13T23:27:59.935Z,6.30
2023-01-13T23:30:32.007Z,6.30
2023-01-13T23:33:04.477Z,6.25
2023-01-13T23:35:36.609Z,6.25
2023-01-13T23:38:08.765Z,6.24
2023-01-13T23:40:43.832Z,6.22
2023-01-13T23:43:16.090Z,6.21
2023-01-13T23:45:48.286Z,6.21
2023-01-13T23:48:20.455Z,6.22
2023-01-13T23:51:02.216Z,6.21
2023-01-13T23:53:39.199Z,6.18
2023-01-13T23:56:16.292Z,6.20
2023-01-13T23:58:52.479Z,6.14
